Time;durP1;ratioP1;P1;durP2;ratioP2;P2;SDS_P1;SDS_P2;PMS_P1;PMS_P2;Temp;Humidity;BMP_temperature;BMP_pressure;BME280_temperature;BME280_humidity;BME280_pressure;Samples;Min_cycle;Max_cycle;Signal;HPM_P1;HPM_P2
2021/12/11 00:20:22;;;;;;;6.87;6.18;;;;;;;;;;4160892;29;20118;-65
2021/12/11 00:22:48;;;;;;;6.50;5.85;;;;;;;;;;4124490;34;20454;-65
2021/12/11 00:25:16;;;;;;;6.72;5.95;;;;;;;;;;4111546;34;20458;-66
2021/12/11 00:27:44;;;;;;;7.25;6.57;;;;;;;;;;4124269;34;20228;-65
2021/12/11 00:30:19;;;;;;;8.90;7.57;;;;;;;;;;4111899;34;20127;-67
2021/12/11 00:32:45;;;;;;;6.85;6.22;;;;;;;;;;4124064;34;20127;-67
2021/12/11 00:35:20;;;;;;;6.78;6.07;;;;;;;;;;4124003;34;20111;-67
2021/12/11 00:37:47;;;;;;;7.55;5.95;;;;;;;;;;4124189;34;20128;-67
2021/12/11 00:40:22;;;;;;;6.00;5.40;;;;;;;;;;4123930;34;20611;-66
2021/12/11 00:42:50;;;;;;;6.80;6.07;;;;;;;;;;4111745;34;20096;-66
2021/12/11 00:45:20;;;;;;;6.50;5.90;;;;;;;;;;4111399;34;20287;-66
2021/12/11 00:47:55;;;;;;;7.15;6.07;;;;;;;;;;4124026;34;20174;-66
2021/12/11 00:50:28;;;;;;;7.12;6.37;;;;;;;;;;4123945;34;20126;-66
2021/12/11 00:53:39;;;;;;;6.20;5.53;;;;;;;;;;4124218;34;20116;-66
2021/12/11 00:56:12;;;;;;;6.80;6.10;;;;;;;;;;4093521;34;20100;-66
2021/12/11 00:58:40;;;;;;;6.50;5.53;;;;;;;;;;4111646;34;20139;-66
2021/12/11 01:01:06;;;;;;;6.65;6.05;;;;;;;;;;4123869;34;20100;-66
2021/12/11 01:03:31;;;;;;;7.28;6.57;;;;;;;;;;4124083;34;20092;-66
2021/12/11 01:05:59;;;;;;;6.85;6.15;;;;;;;;;;4123762;34;20217;-65
2021/12/11 01:08:34;;;;;;;7.47;6.65;;;;;;;;;;4123746;34;20109;-65
2021/12/11 01:11:25;;;;;;;7.07;6.37;;;;;;;;;;4123810;34;20222;-66
2021/12/11 01:14:38;;;;;;;7.78;6.97;;;;;;;;;;4123774;34;20107;-66
2021/12/11 01:17:11;;;;;;;7.15;6.32;;;;;;;;;;4121202;34;20096;-66
2021/12/11 01:19:44;;;;;;;7.55;6.47;;;;;;;;;;4111759;34;20205;-66
2021/12/11 01:22:34;;;;;;;7.72;6.93;;;;;;;;;;4106738;34;20123;-66
2021/12/11 01:25:14;;;;;;;6.75;6.15;;;;;;;;;;4124049;34;20472;-66
2021/12/11 01:27:42;;;;;;;8.25;6.70;;;;;;;;;;4123703;34;20094;-66
2021/12/11 01:30:13;;;;;;;7.57;6.87;;;;;;;;;;4123850;34;20120;-67
2021/12/11 01:32:40;;;;;;;7.90;7.10;;;;;;;;;;4123736;34;20104;-67
2021/12/11 01:35:08;;;;;;;6.78;6.12;;;;;;;;;;4123548;34;20123;-67
2021/12/11 01:37:35;;;;;;;8.93;6.90;;;;;;;;;;4123623;34;20289;-67
2021/12/11 01:40:05;;;;;;;6.62;6.00;;;;;;;;;;4110987;34;20209;-67
2021/12/11 01:42:33;;;;;;;6.60;5.90;;;;;;;;;;4111403;34;20119;-67
2021/12/11 01:45:00;;;;;;;6.00;5.40;;;;;;;;;;4122808;34;20236;-67
2021/12/11 01:47:29;;;;;;;7.05;6.35;;;;;;;;;;4123743;34;20104;-67
2021/12/11 01:50:00;;;;;;;7.15;6.45;;;;;;;;;;4111325;34;20146;-67
2021/12/11 01:52:38;;;;;;;7.62;6.53;;;;;;;;;;4123581;34;20529;-67
2021/12/11 01:55:21;;;;;;;7.47;6.40;;;;;;;;;;4110902;34;20202;-67
2021/12/11 01:57:51;;;;;;;7.22;6.25;;;;;;;;;;4123442;34;20188;-67
2021/12/11 02:00:45;;;;;;;6.75;6.12;;;;;;;;;;4111491;34;20473;-67
2021/12/11 02:03:15;;;;;;;6.30;5.47;;;;;;;;;;4123638;34;20112;-67
2021/12/11 02:05:41;;;;;;;6.68;6.07;;;;;;;;;;4123644;34;20118;-67
2021/12/11 02:08:11;;;;;;;7.80;7.00;;;;;;;;;;4123510;34;20112;-67
2021/12/11 02:10:44;;;;;;;8.93;7.30;;;;;;;;;;4111163;34;20096;-67
2021/12/11 02:13:15;;;;;;;6.47;5.87;;;;;;;;;;4123328;34;20102;-67
2021/12/11 02:15:48;;;;;;;5.95;5.45;;;;;;;;;;4111275;34;20120;-68
2021/12/11 02:18:22;;;;;;;6.55;5.93;;;;;;;;;;4123283;34;20132;-67
2021/12/11 02:20:58;;;;;;;7.30;6.35;;;;;;;;;;4123565;34;20124;-67
2021/12/11 02:23:25;;;;;;;5.45;4.95;;;;;;;;;;4123144;34;20115;-67
2021/12/11 02:25:54;;;;;;;4.85;4.45;;;;;;;;;;4110654;34;20533;-68
2021/12/11 02:28:33;;;;;;;6.37;5.28;;;;;;;;;;4123262;34;20124;-67
2021/12/11 02:31:11;;;;;;;6.20;5.60;;;;;;;;;;4111043;34;20132;-67
2021/12/11 02:33:39;;;;;;;5.90;5.30;;;;;;;;;;4123101;34;20224;-67
2021/12/11 02:36:36;;;;;;;5.82;5.32;;;;;;;;;;4117656;34;20103;-67
2021/12/11 02:39:06;;;;;;;;;;;;;;;;;;4123563;34;20227;-67
2021/12/11 02:42:12;;;;;;;5.80;5.30;;;;;;;;;;4123084;34;19979;-67
2021/12/11 02:44:41;;;;;;;5.93;5.32;;;;;;;;;;4114012;34;20618;-67
2021/12/11 02:47:14;;;;;;;6.60;6.00;;;;;;;;;;4122981;34;20093;-67
2021/12/11 02:49:55;;;;;;;6.87;5.30;;;;;;;;;;4123098;34;20100;-67
2021/12/11 02:52:37;;;;;;;5.72;5.22;;;;;;;;;;4110567;34;20516;-66
2021/12/11 02:55:36;;;;;;;6.50;5.90;;;;;;;;;;4123169;34;20120;-67
2021/12/11 02:58:14;;;;;;;6.55;5.90;;;;;;;;;;4122885;34;20116;-66
2021/12/11 03:00:45;;;;;;;5.93;5.32;;;;;;;;;;4122922;34;20128;-67
2021/12/11 03:03:15;;;;;;;6.50;5.90;;;;;;;;;;4122863;34;20186;-68
2021/12/11 03:05:46;;;;;;;6.15;5.55;;;;;;;;;;4110419;34;20137;-68
2021/12/11 03:08:16;;;;;;;6.90;5.57;;;;;;;;;;4122803;34;20178;-67
2021/12/11 03:10:44;;;;;;;6.30;5.70;;;;;;;;;;4122767;34;20209;-68
2021/12/11 03:13:11;;;;;;;6.95;6.07;;;;;;;;;;4122661;34;20551;-68
2021/12/11 03:15:37;;;;;;;7.07;6.07;;;;;;;;;;4110388;34;20096;-67
2021/12/11 03:18:05;;;;;;;6.53;5.93;;;;;;;;;;4110591;34;20132;-68
2021/12/11 03:20:34;;;;;;;5.90;5.30;;;;;;;;;;4110281;34;20179;-68
2021/12/11 03:23:00;;;;;;;6.10;5.50;;;;;;;;;;4122552;34;20194;-68
2021/12/11 03:25:28;;;;;;;6.72;6.05;;;;;;;;;;4122755;34;20140;-70
2021/12/11 03:27:54;;;;;;;6.35;5.75;;;;;;;;;;4122685;34;20091;-68
2021/12/11 03:30:23;;;;;;;6.32;5.80;;;;;;;;;;4122557;34;20115;-68
2021/12/11 03:32:52;;;;;;;6.10;5.50;;;;;;;;;;4122513;34;20145;-68
2021/12/11 03:35:18;;;;;;;7.97;5.97;;;;;;;;;;4122723;34;20229;-69
2021/12/11 03:37:44;;;;;;;6.18;5.68;;;;;;;;;;4110022;34;20130;-69
2021/12/11 03:40:11;;;;;;;5.95;5.43;;;;;;;;;;4110074;34;20525;-69
2021/12/11 03:42:39;;;;;;;5.53;5.03;;;;;;;;;;4122410;34;20543;-68
2021/12/11 03:45:10;;;;;;;6.12;5.53;;;;;;;;;;4122398;34;20187;-68
2021/12/11 03:47:41;;;;;;;6.10;5.60;;;;;;;;;;4122642;34;20119;-69
2021/12/11 03:50:11;;;;;;;5.95;5.40;;;;;;;;;;4110223;34;20507;-70
2021/12/11 03:52:38;;;;;;;5.75;5.25;;;;;;;;;;4122416;34;20120;-71
2021/12/11 03:55:05;;;;;;;6.03;5.43;;;;;;;;;;4110313;34;20125;-70
2021/12/11 03:57:31;;;;;;;6.90;5.37;;;;;;;;;;4122457;34;20135;-71
2021/12/11 03:59:57;;;;;;;6.78;5.68;;;;;;;;;;4109731;34;20116;-71
2021/12/11 04:02:27;;;;;;;6.25;5.47;;;;;;;;;;4122350;34;20100;-71
2021/12/11 04:04:56;;;;;;;7.20;5.30;;;;;;;;;;4110060;34;20126;-77
2021/12/11 04:07:30;;;;;;;6.57;5.22;;;;;;;;;;4122244;34;20611;-69
2021/12/11 04:09:56;;;;;;;5.95;5.35;;;;;;;;;;4124397;34;20201;-67
2021/12/11 04:12:25;;;;;;;5.35;4.85;;;;;;;;;;4124317;34;20524;-67
2021/12/11 04:14:52;;;;;;;9.25;5.55;;;;;;;;;;4112082;34;20111;-68
2021/12/11 04:17:21;;;;;;;5.97;5.37;;;;;;;;;;4124571;34;20220;-66
2021/12/11 04:19:49;;;;;;;6.60;5.30;;;;;;;;;;4124241;34;20120;-66
2021/12/11 04:22:15;;;;;;;6.40;5.10;;;;;;;;;;4124519;34;20103;-66
2021/12/11 04:24:43;;;;;;;6.95;5.68;;;;;;;;;;4124141;34;20116;-66
2021/12/11 04:27:12;;;;;;;6.00;5.40;;;;;;;;;;4124209;34;20096;-67
2021/12/11 04:29:39;;;;;;;6.15;5.35;;;;;;;;;;4124289;34;20123;-66
2021/12/11 04:32:06;;;;;;;6.43;5.78;;;;;;;;;;4124165;34;20134;-67
2021/12/11 04:34:33;;;;;;;6.53;5.93;;;;;;;;;;4124049;34;20119;-66
2021/12/11 04:37:12;;;;;;;5.65;4.80;;;;;;;;;;4124116;34;20123;-66
2021/12/11 04:39:40;;;;;;;6.60;5.65;;;;;;;;;;4124085;34;20523;-69
2021/12/11 04:42:23;;;;;;;8.23;5.30;;;;;;;;;;4124065;34;20115;-71
2021/12/11 04:44:49;;;;;;;7.25;5.22;;;;;;;;;;4124197;34;20220;-71
2021/12/11 04:47:29;;;;;;;6.35;5.75;;;;;;;;;;4123988;34;20107;-75
2021/12/11 04:50:01;;;;;;;6.07;5.47;;;;;;;;;;4117418;34;20107;-75
2021/12/11 04:52:34;;;;;;;6.47;5.85;;;;;;;;;;4114184;34;20090;-73
2021/12/11 04:55:36;;;;;;;6.55;5.90;;;;;;;;;;4117386;34;20123;-70
2021/12/11 04:58:14;;;;;;;10.95;5.78;;;;;;;;;;4114535;34;20104;-71
2021/12/11 05:11:48;;;;;;;8.77;7.03;;;;;;;;;;4123824;34;20087;-68
2021/12/11 05:14:16;;;;;;;9.02;7.40;;;;;;;;;;4123743;34;20132;-68
2021/12/11 05:16:43;;;;;;;11.18;6.75;;;;;;;;;;4123661;34;20099;-67
2021/12/11 05:19:11;;;;;;;6.82;6.10;;;;;;;;;;4087778;34;20699;-68
2021/12/11 05:21:37;;;;;;;8.85;7.35;;;;;;;;;;4122363;34;20108;-68
2021/12/11 05:24:04;;;;;;;13.15;7.45;;;;;;;;;;4123766;34;20224;-68
2021/12/11 05:26:30;;;;;;;7.97;6.35;;;;;;;;;;4111165;34;20116;-72
2021/12/11 05:28:57;;;;;;;9.27;7.35;;;;;;;;;;4111307;34;20111;-73
2021/12/11 05:31:23;;;;;;;7.87;6.70;;;;;;;;;;4123636;34;20208;-73
2021/12/11 05:33:49;;;;;;;7.62;6.82;;;;;;;;;;4111239;34;20197;-72
2021/12/11 05:36:17;;;;;;;8.48;6.80;;;;;;;;;;4123644;34;20123;-72
2021/12/11 05:38:47;;;;;;;7.93;6.97;;;;;;;;;;4111119;34;20115;-73
2021/12/11 05:41:15;;;;;;;11.60;7.75;;;;;;;;;;4111745;34;20120;-72
2021/12/11 05:43:42;;;;;;;12.00;8.30;;;;;;;;;;4123596;34;20115;-72
2021/12/11 05:46:11;;;;;;;10.40;8.82;;;;;;;;;;4100307;34;20099;-72
2021/12/11 05:48:37;;;;;;;9.82;6.72;;;;;;;;;;4123555;34;20114;-72
2021/12/11 05:51:06;;;;;;;9.95;6.78;;;;;;;;;;4111185;34;20504;-72
2021/12/11 05:53:33;;;;;;;7.32;6.62;;;;;;;;;;4123695;34;20118;-72
2021/12/11 05:56:05;;;;;;;7.07;6.43;;;;;;;;;;4100101;34;20107;-72
2021/12/11 06:01:19;;;;;;;7.72;6.78;;;;;;;;;;4123466;34;20107;-73
2021/12/11 06:03:45;;;;;;;10.55;7.65;;;;;;;;;;4123365;34;20548;-73
2021/12/11 06:06:11;;;;;;;11.95;7.50;;;;;;;;;;4100379;34;20231;-71
2021/12/11 06:08:38;;;;;;;12.05;7.47;;;;;;;;;;4123344;34;20468;-72
2021/12/11 06:11:05;;;;;;;9.48;7.62;;;;;;;;;;4123665;34;20122;-72
2021/12/11 06:13:31;;;;;;;12.15;8.60;;;;;;;;;;4078544;34;20115;-72
2021/12/11 06:15:59;;;;;;;11.60;10.40;;;;;;;;;;4123382;34;20235;-72
2021/12/11 06:18:25;;;;;;;12.60;10.30;;;;;;;;;;4123384;34;20092;-72
2021/12/11 06:20:51;;;;;;;15.50;10.60;;;;;;;;;;4110990;34;20095;-72
2021/12/11 06:23:18;;;;;;;16.25;10.35;;;;;;;;;;4110995;34;20116;-73
2021/12/11 06:25:45;;;;;;;12.43;9.55;;;;;;;;;;4110782;34;20135;-72
2021/12/11 06:28:11;;;;;;;11.75;8.55;;;;;;;;;;4123109;34;20477;-72
2021/12/11 06:30:38;;;;;;;8.50;7.60;;;;;;;;;;4123370;34;20179;-71
2021/12/11 06:33:04;;;;;;;13.10;9.98;;;;;;;;;;4110689;34;20191;-72
2021/12/11 06:35:44;;;;;;;18.35;10.18;;;;;;;;;;4123205;34;20120;-72
2021/12/11 06:38:12;;;;;;;11.23;9.50;;;;;;;;;;4110903;34;20122;-73
2021/12/11 06:40:39;;;;;;;10.35;8.00;;;;;;;;;;4110709;34;20265;-71
2021/12/11 06:43:05;;;;;;;8.00;7.20;;;;;;;;;;4105220;34;20544;-72
2021/12/11 06:45:31;;;;;;;12.80;7.35;;;;;;;;;;4110921;34;20127;-71
2021/12/11 06:47:58;;;;;;;8.57;7.65;;;;;;;;;;4123004;34;20122;-72
2021/12/11 06:50:24;;;;;;;12.10;8.85;;;;;;;;;;4123137;34;20119;-72
2021/12/11 06:52:51;;;;;;;7.75;6.97;;;;;;;;;;4110465;34;20116;-72
2021/12/11 06:55:19;;;;;;;10.25;9.13;;;;;;;;;;4099772;34;20124;-72
2021/12/11 06:57:45;;;;;;;9.80;7.93;;;;;;;;;;4099156;34;20519;-70
2021/12/11 07:00:14;;;;;;;8.45;7.37;;;;;;;;;;4110482;34;20094;-73
2021/12/11 07:02:40;;;;;;;13.55;10.48;;;;;;;;;;4110634;34;20220;-71
2021/12/11 07:05:06;;;;;;;8.25;6.70;;;;;;;;;;4122771;34;20087;-71
2021/12/11 07:07:35;;;;;;;7.78;6.65;;;;;;;;;;4099537;34;20671;-71
2021/12/11 07:10:04;;;;;;;8.77;7.07;;;;;;;;;;4122822;34;20131;-71
2021/12/11 07:12:31;;;;;;;9.75;7.55;;;;;;;;;;4122804;34;20096;-71
2021/12/11 07:14:57;;;;;;;7.85;7.05;;;;;;;;;;4122879;34;20122;-72
2021/12/11 07:17:23;;;;;;;8.85;7.25;;;;;;;;;;4122791;34;20595;-72
2021/12/11 07:19:50;;;;;;;9.18;6.40;;;;;;;;;;4122607;34;20180;-72
2021/12/11 07:22:17;;;;;;;11.32;7.10;;;;;;;;;;4110613;34;20139;-72
2021/12/11 07:24:50;;;;;;;9.88;7.45;;;;;;;;;;4110435;34;20452;-72
2021/12/11 07:27:18;;;;;;;10.80;7.22;;;;;;;;;;4122567;34;20112;-72
2021/12/11 07:29:44;;;;;;;8.95;7.50;;;;;;;;;;4110705;34;20101;-72
2021/12/11 07:32:11;;;;;;;9.63;6.93;;;;;;;;;;4110398;34;20225;-71
2021/12/11 07:34:38;;;;;;;9.00;6.78;;;;;;;;;;4099555;34;20119;-71
2021/12/11 07:37:04;;;;;;;9.07;7.45;;;;;;;;;;4110129;34;20509;-71
2021/12/11 07:39:31;;;;;;;8.63;7.62;;;;;;;;;;4110686;34;20526;-72
2021/12/11 07:41:58;;;;;;;15.88;8.88;;;;;;;;;;4122629;34;20124;-71
2021/12/11 07:44:24;;;;;;;10.15;7.45;;;;;;;;;;4124067;34;20201;-72
2021/12/11 07:46:51;;;;;;;10.88;7.90;;;;;;;;;;4112314;34;20119;-71
2021/12/11 07:49:18;;;;;;;21.52;8.70;;;;;;;;;;4112343;34;20548;-73
2021/12/11 07:51:44;;;;;;;15.00;8.90;;;;;;;;;;4112104;34;20139;-72
2021/12/11 07:54:10;;;;;;;10.20;9.02;;;;;;;;;;4124470;34;20636;-72
2021/12/11 07:56:37;;;;;;;10.07;8.40;;;;;;;;;;4112297;34;20206;-72
2021/12/11 07:59:05;;;;;;;15.77;8.98;;;;;;;;;;4124315;34;20100;-72
2021/12/11 08:01:33;;;;;;;12.32;9.25;;;;;;;;;;4124460;34;20107;-72
2021/12/11 08:04:03;;;;;;;9.88;8.88;;;;;;;;;;4124211;34;20123;-72
2021/12/11 08:06:30;;;;;;;12.20;9.10;;;;;;;;;;4112307;34;20189;-72
2021/12/11 08:08:56;;;;;;;14.13;10.50;;;;;;;;;;4124229;34;20116;-72
2021/12/11 08:11:25;;;;;;;13.60;10.27;;;;;;;;;;4124601;34;20213;-71
2021/12/11 08:13:53;;;;;;;11.68;9.35;;;;;;;;;;4111677;34;20551;-72
2021/12/11 08:16:24;;;;;;;9.95;8.52;;;;;;;;;;4111897;34;20128;-71
2021/12/11 08:18:52;;;;;;;12.98;9.60;;;;;;;;;;4124048;34;20124;-71
2021/12/11 08:21:18;;;;;;;10.13;8.77;;;;;;;;;;4112130;34;20113;-72
2021/12/11 08:23:47;;;;;;;12.13;8.02;;;;;;;;;;4124236;34;20126;-71
2021/12/11 08:26:20;;;;;;;10.25;7.90;;;;;;;;;;4112034;34;20096;-72
2021/12/11 08:28:46;;;;;;;9.68;8.65;;;;;;;;;;4112513;34;20221;-72
2021/12/11 08:31:14;;;;;;;12.27;8.15;;;;;;;;;;4112056;34;20123;-71
2021/12/11 08:33:41;;;;;;;9.60;7.60;;;;;;;;;;4124059;34;20574;-71
2021/12/11 08:36:08;;;;;;;8.23;7.28;;;;;;;;;;4111666;34;20111;-71
2021/12/11 08:38:34;;;;;;;9.25;7.68;;;;;;;;;;4111647;34;20126;-72
2021/12/11 08:41:01;;;;;;;9.30;7.70;;;;;;;;;;4124092;34;20114;-71
2021/12/11 08:43:28;;;;;;;10.95;7.78;;;;;;;;;;4123971;34;20221;-72
2021/12/11 08:46:31;;;;;;;8.02;7.22;;;;;;;;;;4111598;34;20097;-72
2021/12/11 08:48:50;;;;;;;12.13;7.60;;;;;;;;;;4122391;34;20104;-72
2021/12/11 08:51:39;;;;;;;7.78;6.97;;;;;;;;;;4100783;34;20218;-71
2021/12/11 08:54:06;;;;;;;7.45;6.62;;;;;;;;;;4100691;34;20128;-72
2021/12/11 08:56:34;;;;;;;9.73;6.90;;;;;;;;;;4111824;34;20115;-72
2021/12/11 08:59:00;;;;;;;8.25;6.90;;;;;;;;;;4111270;34;20116;-71
2021/12/11 09:01:35;;;;;;;7.40;6.60;;;;;;;;;;4123992;34;20120;-71
2021/12/11 09:04:10;;;;;;;9.23;7.47;;;;;;;;;;4100512;34;20120;-72
2021/12/11 09:06:47;;;;;;;8.95;7.28;;;;;;;;;;4111710;34;20646;-74
2021/12/11 09:09:15;;;;;;;8.77;7.87;;;;;;;;;;4111770;34;20099;-73
2021/12/11 09:11:47;;;;;;;8.45;7.30;;;;;;;;;;4111524;34;20217;-72
2021/12/11 09:14:22;;;;;;;11.25;7.37;;;;;;;;;;4123782;34;20219;-72
2021/12/11 09:17:05;;;;;;;8.68;7.22;;;;;;;;;;4111568;34;20445;-72
2021/12/11 09:19:39;;;;;;;7.97;6.80;;;;;;;;;;4111359;34;20157;-72
2021/12/11 09:22:28;;;;;;;10.30;6.85;;;;;;;;;;4111347;34;20120;-73
2021/12/11 09:25:23;;;;;;;10.73;7.90;;;;;;;;;;4100282;34;20469;-74
2021/12/11 09:27:51;;;;;;;7.87;7.07;;;;;;;;;;4103457;34;20116;-75
2021/12/11 09:30:31;;;;;;;9.35;7.10;;;;;;;;;;4111333;34;20194;-74
2021/12/11 09:33:08;;;;;;;9.68;6.65;;;;;;;;;;4124001;34;20100;-74
2021/12/11 09:35:48;;;;;;;10.05;6.47;;;;;;;;;;4111089;34;20652;-72
2021/12/11 09:38:36;;;;;;;7.30;6.43;;;;;;;;;;4110997;34;20448;-72
2021/12/11 09:41:19;;;;;;;7.53;6.82;;;;;;;;;;4111168;34;20134;-72
2021/12/11 09:44:15;;;;;;;7.40;6.65;;;;;;;;;;4123684;34;20570;-72
2021/12/11 09:46:56;;;;;;;8.65;7.45;;;;;;;;;;4123481;34;20571;-71
2021/12/11 09:49:27;;;;;;;8.02;6.57;;;;;;;;;;4111246;34;20514;-71
2021/12/11 09:52:02;;;;;;;7.87;6.20;;;;;;;;;;4111061;34;20095;-71
2021/12/11 09:54:29;;;;;;;8.68;6.50;;;;;;;;;;4111830;34;20120;-70
2021/12/11 09:56:59;;;;;;;9.32;6.90;;;;;;;;;;4111059;34;20112;-71
2021/12/11 09:59:30;;;;;;;7.18;5.97;;;;;;;;;;4110980;34;20167;-70
2021/12/11 10:02:00;;;;;;;10.95;6.80;;;;;;;;;;4123664;34;20096;-71
2021/12/11 10:04:34;;;;;;;9.95;6.60;;;;;;;;;;4100278;34;20236;-72
2021/12/11 10:07:26;;;;;;;7.93;7.12;;;;;;;;;;4122773;34;20104;-71
2021/12/11 10:09:56;;;;;;;10.73;6.07;;;;;;;;;;4112462;34;20108;-71
2021/12/11 10:12:35;;;;;;;6.35;5.30;;;;;;;;;;4123476;34;20209;-72
2021/12/11 10:15:11;;;;;;;6.93;5.80;;;;;;;;;;4111064;34;20138;-71
2021/12/11 10:17:42;;;;;;;7.40;6.43;;;;;;;;;;4123583;34;20099;-71
2021/12/11 10:20:18;;;;;;;8.55;7.47;;;;;;;;;;4110971;34;20203;-71
2021/12/11 10:22:46;;;;;;;10.25;7.85;;;;;;;;;;4123283;34;20103;-70
2021/12/11 10:25:25;;;;;;;8.88;7.30;;;;;;;;;;4123181;34;20112;-70
2021/12/11 10:27:51;;;;;;;10.82;7.30;;;;;;;;;;4087781;34;20123;-71
2021/12/11 10:30:24;;;;;;;9.05;7.30;;;;;;;;;;4123012;34;20522;-71
2021/12/11 10:32:51;;;;;;;13.20;8.88;;;;;;;;;;4123002;34;20124;-71
2021/12/11 10:35:22;;;;;;;10.35;7.78;;;;;;;;;;4110473;34;20155;-70
2021/12/11 10:37:48;;;;;;;7.85;7.03;;;;;;;;;;4123136;34;20236;-71
2021/12/11 10:40:19;;;;;;;8.32;6.37;;;;;;;;;;4110782;34;20120;-70
2021/12/11 10:42:49;;;;;;;6.40;5.65;;;;;;;;;;4123247;34;20589;-71
2021/12/11 10:45:16;;;;;;;6.82;6.00;;;;;;;;;;4123193;34;20484;-70
2021/12/11 10:47:48;;;;;;;10.15;7.80;;;;;;;;;;4110563;34;20092;-71
2021/12/11 10:50:26;;;;;;;7.85;6.78;;;;;;;;;;4110908;34;20203;-71
2021/12/11 10:52:52;;;;;;;14.07;7.55;;;;;;;;;;4123193;34;20229;-71
2021/12/11 10:55:22;;;;;;;6.97;5.78;;;;;;;;;;4110497;34;20124;-71
2021/12/11 10:57:51;;;;;;;7.12;6.43;;;;;;;;;;4110410;34;20576;-71
2021/12/11 11:00:47;;;;;;;7.32;6.50;;;;;;;;;;4123366;34;20114;-71
2021/12/11 11:03:17;;;;;;;7.07;5.70;;;;;;;;;;4119332;34;20119;-72
2021/12/11 11:05:44;;;;;;;6.87;5.70;;;;;;;;;;4110779;34;20091;-71
2021/12/11 11:08:10;;;;;;;14.77;5.12;;;;;;;;;;4110323;34;20589;-70
2021/12/11 11:10:42;;;;;;;10.68;5.62;;;;;;;;;;4122479;34;20770;-71
2021/12/11 11:13:11;;;;;;;7.68;5.20;;;;;;;;;;4110338;34;20096;-71
2021/12/11 11:15:37;;;;;;;7.37;4.90;;;;;;;;;;4122778;34;20715;-71
2021/12/11 11:18:04;;;;;;;6.53;5.40;;;;;;;;;;4121766;34;20123;-71
2021/12/11 11:20:45;;;;;;;6.78;4.82;;;;;;;;;;4122898;34;20111;-70
2021/12/11 11:23:11;;;;;;;6.40;5.50;;;;;;;;;;4110402;34;20123;-71
2021/12/11 11:25:41;;;;;;;6.07;5.30;;;;;;;;;;4110151;34;20509;-71
2021/12/11 11:28:10;;;;;;;6.37;5.43;;;;;;;;;;4110552;34;20478;-71
2021/12/11 11:30:39;;;;;;;6.43;5.72;;;;;;;;;;4122948;34;20115;-71
2021/12/11 11:33:10;;;;;;;6.10;5.22;;;;;;;;;;4088372;34;20200;-72
2021/12/11 11:35:42;;;;;;;51.60;10.15;;;;;;;;;;4110458;34;20512;-71
2021/12/11 11:38:13;;;;;;;8.25;5.07;;;;;;;;;;4105112;34;20183;-71
2021/12/11 11:40:43;;;;;;;6.93;5.43;;;;;;;;;;4110504;34;20193;-71
2021/12/11 11:43:09;;;;;;;7.03;5.78;;;;;;;;;;4122480;34;20211;-71
2021/12/11 11:45:41;;;;;;;7.60;5.03;;;;;;;;;;4109995;34;20481;-71
2021/12/11 11:48:07;;;;;;;102.20;13.10;;;;;;;;;;4122256;34;20119;-71
2021/12/11 11:50:38;;;;;;;10.73;6.90;;;;;;;;;;4109918;34;20201;-70
2021/12/11 11:53:05;;;;;;;7.68;5.28;;;;;;;;;;4110209;34;20140;-70
2021/12/11 11:55:42;;;;;;;7.70;5.57;;;;;;;;;;4110284;34;20108;-70
2021/12/11 11:58:08;;;;;;;7.87;5.22;;;;;;;;;;4098906;34;20536;-72
2021/12/11 12:00:43;;;;;;;22.90;6.43;;;;;;;;;;4098849;34;20465;-70
2021/12/11 12:03:12;;;;;;;14.07;6.75;;;;;;;;;;4122388;34;20103;-71
2021/12/11 12:05:40;;;;;;;8.50;5.35;;;;;;;;;;4109953;34;20120;-70
2021/12/11 12:08:08;;;;;;;6.28;5.55;;;;;;;;;;4109725;34;20092;-70
2021/12/11 12:10:35;;;;;;;5.97;4.60;;;;;;;;;;4110146;34;20107;-70
2021/12/11 12:13:07;;;;;;;7.18;5.43;;;;;;;;;;4122093;34;20205;-70
2021/12/11 12:15:49;;;;;;;7.62;5.57;;;;;;;;;;4110294;34;20111;-70
2021/12/11 12:18:16;;;;;;;11.55;5.45;;;;;;;;;;4117666;34;20112;-71
2021/12/11 12:20:43;;;;;;;7.47;6.12;;;;;;;;;;4122058;34;20509;-71
2021/12/11 12:23:11;;;;;;;7.25;5.12;;;;;;;;;;4122029;34;20107;-71
2021/12/11 12:25:39;;;;;;;14.05;5.47;;;;;;;;;;4121976;34;20191;-70
2021/12/11 12:28:05;;;;;;;6.45;5.85;;;;;;;;;;4109783;34;20106;-70
2021/12/11 12:30:45;;;;;;;5.85;4.90;;;;;;;;;;4100573;34;20089;-71
2021/12/11 12:33:12;;;;;;;5.60;4.97;;;;;;;;;;4124020;34;20134;-71
2021/12/11 12:35:38;;;;;;;6.78;5.25;;;;;;;;;;4111812;34;20603;-70
2021/12/11 12:38:07;;;;;;;5.85;5.22;;;;;;;;;;4100543;34;20294;-71
2021/12/11 12:40:38;;;;;;;8.52;6.32;;;;;;;;;;4111617;34;20203;-70
2021/12/11 12:43:12;;;;;;;7.00;5.75;;;;;;;;;;4124036;34;20096;-71
2021/12/11 12:45:44;;;;;;;7.75;5.12;;;;;;;;;;4112118;34;20440;-70
2021/12/11 12:48:16;;;;;;;8.27;5.68;;;;;;;;;;4124029;34;20794;-70
2021/12/11 12:50:55;;;;;;;16.10;5.20;;;;;;;;;;4124065;34;20119;-70
2021/12/11 12:53:22;;;;;;;5.87;5.28;;;;;;;;;;4112033;34;20679;-70
2021/12/11 12:55:55;;;;;;;11.40;6.07;;;;;;;;;;4111883;34;20110;-71
2021/12/11 12:58:27;;;;;;;9.40;5.57;;;;;;;;;;4124154;34;20100;-71
2021/12/11 13:00:57;;;;;;;7.97;5.20;;;;;;;;;;4123896;34;20438;-71
2021/12/11 13:03:26;;;;;;;7.50;5.75;;;;;;;;;;4111527;34;20517;-70
2021/12/11 13:06:05;;;;;;;7.43;5.47;;;;;;;;;;4123843;34;20123;-70
2021/12/11 13:08:38;;;;;;;6.22;5.62;;;;;;;;;;4111405;34;20108;-71
2021/12/11 13:11:29;;;;;;;34.75;6.05;;;;;;;;;;4100439;34;20100;-73
2021/12/11 13:13:56;;;;;;;9.88;5.85;;;;;;;;;;4108130;34;20161;-71
2021/12/11 13:16:25;;;;;;;6.22;5.07;;;;;;;;;;4111455;34;20111;-72
2021/12/11 13:19:04;;;;;;;7.57;5.20;;;;;;;;;;4100107;34;20115;-71
2021/12/11 13:21:39;;;;;;;6.90;5.55;;;;;;;;;;4111654;34;20106;-71
2021/12/11 13:24:08;;;;;;;7.65;5.65;;;;;;;;;;4123941;34;20089;-72
2021/12/11 13:26:36;;;;;;;7.65;5.50;;;;;;;;;;4123100;34;20124;-72
2021/12/11 13:29:06;;;;;;;7.10;5.80;;;;;;;;;;4123791;34;20559;-72
2021/12/11 13:31:39;;;;;;;7.95;6.30;;;;;;;;;;4123737;34;20206;-72
2021/12/11 13:34:06;;;;;;;7.82;5.97;;;;;;;;;;4111276;34;20147;-71
2021/12/11 13:36:33;;;;;;;6.55;5.40;;;;;;;;;;4100585;34;20135;-71
2021/12/11 13:38:59;;;;;;;5.60;5.03;;;;;;;;;;4123668;34;20120;-72
2021/12/11 13:41:32;;;;;;;6.43;5.75;;;;;;;;;;4122900;34;20618;-72
2021/12/11 13:43:58;;;;;;;7.18;5.87;;;;;;;;;;4123863;34;20115;-72
2021/12/11 13:46:24;;;;;;;20.17;6.95;;;;;;;;;;4111039;34;20100;-71
2021/12/11 13:48:50;;;;;;;7.10;5.68;;;;;;;;;;4123525;34;20127;-71
2021/12/11 13:51:26;;;;;;;8.00;5.50;;;;;;;;;;4123542;34;20185;-72
2021/12/11 13:53:53;;;;;;;7.47;6.00;;;;;;;;;;4100137;34;20124;-72
2021/12/11 13:56:25;;;;;;;10.27;8.23;;;;;;;;;;4123493;34;20550;-74
2021/12/11 13:58:51;;;;;;;16.85;6.20;;;;;;;;;;4111252;34;20127;-72
2021/12/11 14:01:21;;;;;;;10.25;5.97;;;;;;;;;;4110982;34;20588;-72
2021/12/11 14:03:48;;;;;;;7.05;5.62;;;;;;;;;;4100184;34;20115;-72
2021/12/11 14:06:14;;;;;;;6.43;5.80;;;;;;;;;;4123272;34;20095;-71
2021/12/11 14:08:41;;;;;;;7.70;5.90;;;;;;;;;;4111105;34;20108;-73
2021/12/11 14:11:10;;;;;;;8.15;6.12;;;;;;;;;;4123363;34;20103;-72
2021/12/11 14:13:36;;;;;;;8.77;5.95;;;;;;;;;;4123324;34;20111;-72
2021/12/11 14:16:03;;;;;;;6.80;5.25;;;;;;;;;;4112280;34;20454;-73
2021/12/11 14:18:30;;;;;;;6.00;5.40;;;;;;;;;;4110808;34;20128;-72
2021/12/11 14:20:56;;;;;;;7.18;5.82;;;;;;;;;;4123201;34;20114;-70
2021/12/11 14:23:26;;;;;;;6.78;5.75;;;;;;;;;;4123268;34;20130;-72
2021/12/11 14:25:53;;;;;;;8.48;6.20;;;;;;;;;;4099745;34;20119;-73
2021/12/11 14:28:24;;;;;;;7.00;5.85;;;;;;;;;;4100042;34;20140;-72
2021/12/11 14:30:55;;;;;;;9.45;6.15;;;;;;;;;;4123225;34;20559;-72
2021/12/11 14:33:21;;;;;;;7.60;5.80;;;;;;;;;;4111054;34;20115;-73
2021/12/11 14:35:48;;;;;;;8.25;5.87;;;;;;;;;;4123180;34;20107;-72
2021/12/11 14:38:15;;;;;;;9.18;5.90;;;;;;;;;;4099840;34;20132;-74
2021/12/11 14:40:43;;;;;;;7.47;5.82;;;;;;;;;;4123117;34;20123;-73
2021/12/11 14:43:10;;;;;;;7.20;6.28;;;;;;;;;;4110615;34;20117;-72
2021/12/11 14:45:38;;;;;;;7.00;5.82;;;;;;;;;;4123024;34;20088;-73
2021/12/11 14:48:06;;;;;;;7.30;6.00;;;;;;;;;;4123408;34;20104;-73
2021/12/11 14:50:37;;;;;;;8.18;6.47;;;;;;;;;;4110621;34;20530;-70
2021/12/11 14:53:05;;;;;;;6.97;6.28;;;;;;;;;;4110552;34;20125;-71
2021/12/11 14:55:36;;;;;;;7.50;5.70;;;;;;;;;;4110672;34;20115;-70
2021/12/11 14:58:03;;;;;;;9.10;6.12;;;;;;;;;;4110687;34;20139;-71
2021/12/11 15:00:30;;;;;;;8.80;6.10;;;;;;;;;;4110570;34;20516;-72
2021/12/11 15:02:56;;;;;;;6.80;5.90;;;;;;;;;;4122881;34;20111;-71
2021/12/11 15:05:30;;;;;;;9.98;6.97;;;;;;;;;;4122780;34;20108;-71
2021/12/11 15:07:58;;;;;;;8.35;6.60;;;;;;;;;;4099361;34;20229;-71
2021/12/11 15:10:28;;;;;;;8.88;6.90;;;;;;;;;;4110838;34;20099;-71
2021/12/11 15:12:55;;;;;;;7.85;5.95;;;;;;;;;;4122800;34;20181;-72
2021/12/11 15:15:21;;;;;;;6.78;5.60;;;;;;;;;;4110338;34;20225;-72
2021/12/11 15:17:47;;;;;;;6.60;5.37;;;;;;;;;;4122978;34;20120;-71
2021/12/11 15:20:27;;;;;;;8.77;6.12;;;;;;;;;;4122691;34;20111;-71
2021/12/11 15:22:54;;;;;;;7.35;5.87;;;;;;;;;;4099459;34;20165;-72
2021/12/11 15:25:21;;;;;;;8.98;5.85;;;;;;;;;;4099464;34;20115;-72
2021/12/11 15:27:48;;;;;;;6.80;6.10;;;;;;;;;;4110222;34;20213;-72
2021/12/11 15:30:18;;;;;;;7.70;5.90;;;;;;;;;;4122545;34;20100;-71
2021/12/11 15:32:45;;;;;;;7.12;6.07;;;;;;;;;;4110331;34;20195;-72
2021/12/11 15:35:17;;;;;;;6.93;6.07;;;;;;;;;;4122747;34;20273;-71